Adams, New York
Current Conditions -  °F | °C
As of 6:10 PM on Thursday 27 Nov 2014 (Local Time) from KART Reporting Station
Light Snow Light Snow  
Wind Chill: 30°   Ceiling: 1600
Heat Index: 30°   Visibility: 1.7mi
Dew Point: 24°   Wind: 0mph
Humidity: 79%   Direction: NA
Pressure: 30.06"   Gusts: NA
Location:  43.81°N, 76.02°W
Report Text: KART 272310Z AUTO 00000KT 1 3/4SM -SN BKN016 OVC036 M01/M04 A3006 RMK AO2 P0000 T10111044
Loading
Personal Weather Stations






























Interactive Weather Map New forecast layout! Learn more

10-Day Weather Forecast

Advertisements
Track Severe Weather on mobile